Time;durP1;ratioP1;P1;durP2;ratioP2;P2;SDS_P1;SDS_P2;PMS_P1;PMS_P2;Temp;Humidity;BMP_temperature;BMP_pressure;BME280_temperature;BME280_humidity;BME280_pressure;Samples;Min_cycle;Max_cycle;Signal;HPM_P1;HPM_P2
2022/10/06 00:02:10;;;;;;;3.27;1.10;;;;;;;;;;5036641;28;20225;-68
2022/10/06 00:04:36;;;;;;;4.83;1.30;;;;;;;;;;5018926;28;20583;-68
2022/10/06 00:07:02;;;;;;;4.37;1.37;;;;;;;;;;5037187;28;20179;-68
2022/10/06 00:09:28;;;;;;;7.23;1.30;;;;;;;;;;5036878;28;20326;-68
2022/10/06 00:11:54;;;;;;;3.33;1.40;;;;;;;;;;5018899;28;20670;-68
2022/10/06 00:14:20;;;;;;;6.20;1.50;;;;;;;;;;5018728;28;20215;-68
2022/10/06 00:16:46;;;;;;;3.30;1.53;;;;;;;;;;5036362;28;20199;-67
2022/10/06 00:19:12;;;;;;;5.63;1.60;;;;;;;;;;5037037;28;20175;-67
2022/10/06 00:21:38;;;;;;;4.40;1.13;;;;;;;;;;5018732;28;20185;-68
2022/10/06 00:24:04;;;;;;;4.23;1.43;;;;;;;;;;5036291;28;20195;-68
2022/10/06 00:26:30;;;;;;;7.37;1.77;;;;;;;;;;5036650;28;20183;-68
2022/10/06 00:28:56;;;;;;;11.67;2.13;;;;;;;;;;5036409;28;20179;-68
2022/10/06 00:31:22;;;;;;;3.50;1.53;;;;;;;;;;5036200;28;20179;-69
2022/10/06 00:33:49;;;;;;;4.93;1.90;;;;;;;;;;5036504;28;20199;-68
2022/10/06 00:36:15;;;;;;;4.97;2.00;;;;;;;;;;5036716;28;20203;-68
2022/10/06 00:38:41;;;;;;;4.40;1.50;;;;;;;;;;5036063;28;20179;-68
2022/10/06 00:41:06;;;;;;;4.83;2.13;;;;;;;;;;5036392;28;20290;-68
2022/10/06 00:43:47;;;;;;;5.30;1.80;;;;;;;;;;5035123;28;20230;-68
2022/10/06 00:46:16;;;;;;;4.53;1.77;;;;;;;;;;5018280;28;20183;-68
2022/10/06 00:48:42;;;;;;;6.47;1.70;;;;;;;;;;5035925;28;20232;-68
2022/10/06 00:51:08;;;;;;;10.00;1.70;;;;;;;;;;5036138;28;20186;-69
2022/10/06 00:53:34;;;;;;;4.27;1.70;;;;;;;;;;5035965;28;20624;-68
2022/10/06 00:56:00;;;;;;;6.70;1.77;;;;;;;;;;5036266;28;20247;-69
2022/10/06 00:58:26;;;;;;;6.07;2.03;;;;;;;;;;5018624;28;20171;-69
2022/10/06 01:00:54;;;;;;;8.67;2.00;;;;;;;;;;5037134;28;20258;-68
2022/10/06 01:03:31;;;;;;;6.63;2.30;;;;;;;;;;5037140;28;20199;-68
2022/10/06 01:05:58;;;;;;;5.40;1.80;;;;;;;;;;5036706;28;20186;-69
2022/10/06 01:08:24;;;;;;;5.87;2.10;;;;;;;;;;5017820;28;20641;-69
2022/10/06 01:10:50;;;;;;;5.03;1.77;;;;;;;;;;5017904;28;20194;-70
2022/10/06 01:13:17;;;;;;;3.60;1.77;;;;;;;;;;5035419;28;20215;-70
2022/10/06 01:15:47;;;;;;;5.27;1.57;;;;;;;;;;5035671;28;20226;-69
2022/10/06 01:18:15;;;;;;;3.83;1.50;;;;;;;;;;5035700;28;20628;-69
2022/10/06 01:20:43;;;;;;;6.87;1.80;;;;;;;;;;5035908;28;20217;-69
2022/10/06 01:23:10;;;;;;;7.47;2.20;;;;;;;;;;5035698;28;20229;-70
2022/10/06 01:25:36;;;;;;;7.80;1.77;;;;;;;;;;5035715;28;20179;-68
2022/10/06 01:28:03;;;;;;;6.47;2.03;;;;;;;;;;5017526;28;20206;-70
2022/10/06 01:30:44;;;;;;;6.00;1.80;;;;;;;;;;5035550;28;20183;-69
2022/10/06 01:33:10;;;;;;;5.40;1.77;;;;;;;;;;5017656;28;20241;-68
2022/10/06 01:35:37;;;;;;;10.90;1.90;;;;;;;;;;5035412;28;20198;-69
2022/10/06 01:38:03;;;;;;;7.80;2.13;;;;;;;;;;5035127;28;20572;-69
2022/10/06 01:40:29;;;;;;;6.87;1.97;;;;;;;;;;5017403;28;20229;-68
2022/10/06 01:42:55;;;;;;;6.90;2.20;;;;;;;;;;5017180;28;20621;-68
2022/10/06 01:45:21;;;;;;;9.37;1.70;;;;;;;;;;5035300;28;20183;-69
2022/10/06 01:47:47;;;;;;;10.20;1.87;;;;;;;;;;5035011;28;20198;-72
2022/10/06 01:50:14;;;;;;;9.67;2.27;;;;;;;;;;5035316;28;20656;-69
2022/10/06 01:52:40;;;;;;;12.53;2.37;;;;;;;;;;5034912;28;20206;-68
2022/10/06 01:55:06;;;;;;;12.63;2.17;;;;;;;;;;5034867;28;20213;-68
2022/10/06 01:57:37;;;;;;;6.10;2.00;;;;;;;;;;5034711;28;20203;-69
2022/10/06 02:00:03;;;;;;;8.60;2.17;;;;;;;;;;5034949;28;20163;-69
2022/10/06 02:02:30;;;;;;;8.07;2.40;;;;;;;;;;5034716;28;20175;-68
2022/10/06 02:04:56;;;;;;;7.30;2.17;;;;;;;;;;5034765;28;20613;-68
2022/10/06 02:07:22;;;;;;;8.60;2.00;;;;;;;;;;5034718;28;20267;-69
2022/10/06 02:09:48;;;;;;;4.97;1.93;;;;;;;;;;5016862;28;20190;-68
2022/10/06 02:12:14;;;;;;;9.20;2.40;;;;;;;;;;5034944;28;20176;-69
2022/10/06 02:14:40;;;;;;;13.17;2.40;;;;;;;;;;5034305;28;20211;-69
2022/10/06 02:17:06;;;;;;;10.17;2.10;;;;;;;;;;5034920;28;20222;-69
2022/10/06 02:19:32;;;;;;;10.40;2.40;;;;;;;;;;5034566;28;20647;-69
2022/10/06 02:21:58;;;;;;;8.80;2.23;;;;;;;;;;5034540;28;20616;-69
2022/10/06 02:24:24;;;;;;;8.97;2.30;;;;;;;;;;5034235;28;20278;-69
2022/10/06 02:26:50;;;;;;;13.67;2.67;;;;;;;;;;5016554;28;20187;-68
2022/10/06 02:29:16;;;;;;;8.27;2.20;;;;;;;;;;5016496;28;20656;-69
2022/10/06 02:31:42;;;;;;;10.40;2.57;;;;;;;;;;5034713;28;20611;-70
2022/10/06 02:34:08;;;;;;;7.13;2.10;;;;;;;;;;5016396;28;20214;-69
2022/10/06 02:36:35;;;;;;;9.73;2.10;;;;;;;;;;5034375;28;20667;-69
2022/10/06 02:39:00;;;;;;;9.33;2.37;;;;;;;;;;5034109;28;20654;-68
2022/10/06 02:41:26;;;;;;;7.93;2.33;;;;;;;;;;5016392;28;20182;-69
2022/10/06 02:43:54;;;;;;;9.07;2.20;;;;;;;;;;5034016;28;20227;-69
2022/10/06 02:46:21;;;;;;;9.43;2.43;;;;;;;;;;5017941;28;20179;-68
2022/10/06 02:48:47;;;;;;;8.23;2.57;;;;;;;;;;5038018;28;20179;-68
2022/10/06 02:51:14;;;;;;;8.93;2.33;;;;;;;;;;5038239;28;20554;-68
2022/10/06 02:53:41;;;;;;;6.53;2.30;;;;;;;;;;5021161;28;20209;-69
2022/10/06 02:56:09;;;;;;;9.53;2.00;;;;;;;;;;5036117;28;20257;-68
2022/10/06 02:58:35;;;;;;;7.23;2.20;;;;;;;;;;5034020;28;20591;-69
2022/10/06 03:01:08;;;;;;;8.97;1.93;;;;;;;;;;5033750;28;20179;-69
2022/10/06 03:03:35;;;;;;;11.17;2.43;;;;;;;;;;5016014;28;20207;-69
2022/10/06 03:06:20;;;;;;;13.60;2.70;;;;;;;;;;5033277;28;20654;-68
2022/10/06 03:08:47;;;;;;;7.00;2.00;;;;;;;;;;5034065;28;20194;-68
2022/10/06 03:11:13;;;;;;;8.57;2.40;;;;;;;;;;5034175;28;20202;-68
2022/10/06 03:13:40;;;;;;;22.00;2.70;;;;;;;;;;5015690;28;20230;-68
2022/10/06 03:16:13;;;;;;;8.77;2.13;;;;;;;;;;5015865;28;20199;-68
2022/10/06 03:18:39;;;;;;;11.47;2.23;;;;;;;;;;5033838;28;20163;-68
2022/10/06 03:21:05;;;;;;;5.83;1.90;;;;;;;;;;5015705;28;20193;-68
2022/10/06 03:23:31;;;;;;;11.17;3.20;;;;;;;;;;5033416;28;20235;-69
2022/10/06 03:25:57;;;;;;;16.43;2.77;;;;;;;;;;5033495;28;20187;-69
2022/10/06 03:28:23;;;;;;;9.87;2.63;;;;;;;;;;5015749;28;20179;-69
2022/10/06 03:30:49;;;;;;;9.47;2.37;;;;;;;;;;5033627;28;20246;-69
2022/10/06 03:33:15;;;;;;;10.87;3.03;;;;;;;;;;5033337;28;20290;-69
2022/10/06 03:35:41;;;;;;;7.10;2.30;;;;;;;;;;5033190;28;20207;-69
2022/10/06 03:38:07;;;;;;;9.27;2.50;;;;;;;;;;5033333;28;20595;-70
2022/10/06 03:40:33;;;;;;;7.53;2.37;;;;;;;;;;5015502;28;20222;-69
2022/10/06 03:42:59;;;;;;;9.63;3.03;;;;;;;;;;5033206;28;20195;-69
2022/10/06 03:45:25;;;;;;;11.80;2.43;;;;;;;;;;5033284;28;20545;-69
2022/10/06 03:47:52;;;;;;;17.50;2.97;;;;;;;;;;5033137;28;20194;-69
2022/10/06 03:50:18;;;;;;;10.87;3.20;;;;;;;;;;5015566;28;20187;-69
2022/10/06 03:52:44;;;;;;;11.90;3.10;;;;;;;;;;5033135;28;20206;-69
2022/10/06 03:55:10;;;;;;;10.83;2.50;;;;;;;;;;5033332;28;20183;-69
2022/10/06 03:57:35;;;;;;;16.63;3.80;;;;;;;;;;5032970;28;20570;-68
2022/10/06 04:00:01;;;;;;;10.43;2.33;;;;;;;;;;5033506;28;20183;-70
2022/10/06 04:02:27;;;;;;;11.90;2.60;;;;;;;;;;5033119;28;20187;-69
2022/10/06 04:04:54;;;;;;;8.27;2.87;;;;;;;;;;5033415;28;20175;-69
2022/10/06 04:07:20;;;;;;;11.90;2.40;;;;;;;;;;5015352;28;20666;-69
2022/10/06 04:09:46;;;;;;;10.70;2.90;;;;;;;;;;5032980;28;20183;-69
2022/10/06 04:12:12;;;;;;;13.43;3.63;;;;;;;;;;5015385;28;20278;-69
2022/10/06 04:14:38;;;;;;;9.40;2.50;;;;;;;;;;5032576;28;20265;-69
2022/10/06 04:17:04;;;;;;;9.80;2.63;;;;;;;;;;5033194;28;20195;-69
2022/10/06 04:19:30;;;;;;;13.80;2.93;;;;;;;;;;5019650;28;20179;-69
2022/10/06 04:21:56;;;;;;;11.23;2.83;;;;;;;;;;5018857;28;20233;-69
2022/10/06 04:24:22;;;;;;;10.37;2.50;;;;;;;;;;5036440;28;20281;-69
2022/10/06 04:26:48;;;;;;;10.57;2.73;;;;;;;;;;5018721;28;20183;-70
2022/10/06 04:29:15;;;;;;;16.23;2.70;;;;;;;;;;5036553;28;20186;-69
2022/10/06 04:31:41;;;;;;;14.03;3.00;;;;;;;;;;5036816;28;20233;-69
2022/10/06 04:34:07;;;;;;;10.00;3.13;;;;;;;;;;5018610;28;20756;-69
2022/10/06 04:36:34;;;;;;;13.30;2.60;;;;;;;;;;5018559;28;20581;-69
2022/10/06 04:39:02;;;;;;;14.67;3.30;;;;;;;;;;5018531;28;20186;-72
2022/10/06 04:41:32;;;;;;;12.20;2.47;;;;;;;;;;5018469;28;20183;-69
2022/10/06 04:43:58;;;;;;;10.20;3.70;;;;;;;;;;5036127;28;20328;-69
2022/10/06 04:46:24;;;;;;;14.37;3.20;;;;;;;;;;5018517;28;20662;-69
2022/10/06 04:48:51;;;;;;;9.80;2.80;;;;;;;;;;5036042;28;20175;-68
2022/10/06 04:51:17;;;;;;;8.27;2.83;;;;;;;;;;5066034;23;20261;-69
2022/10/06 04:53:43;;;;;;;14.97;3.27;;;;;;;;;;5055940;28;20171;-69
2022/10/06 04:56:11;;;;;;;10.43;2.87;;;;;;;;;;5037719;28;20206;-69
2022/10/06 04:58:38;;;;;;;15.40;2.87;;;;;;;;;;5055672;28;20174;-67
2022/10/06 05:01:05;;;;;;;8.47;2.73;;;;;;;;;;5055599;28;20204;-69
2022/10/06 05:03:31;;;;;;;12.07;2.63;;;;;;;;;;5056083;28;20547;-68
2022/10/06 05:06:04;;;;;;;13.30;2.60;;;;;;;;;;5055520;28;20643;-69
2022/10/06 05:08:30;;;;;;;10.07;2.90;;;;;;;;;;5055358;28;20181;-69
2022/10/06 05:11:00;;;;;;;14.93;3.20;;;;;;;;;;5055351;28;20564;-69
2022/10/06 05:13:26;;;;;;;12.40;3.00;;;;;;;;;;5055402;28;20178;-69
2022/10/06 05:15:59;;;;;;;13.27;3.07;;;;;;;;;;5055291;28;20657;-69
2022/10/06 05:18:25;;;;;;;12.37;3.53;;;;;;;;;;5037340;28;20178;-69
2022/10/06 05:20:55;;;;;;;10.10;3.07;;;;;;;;;;5037203;28;20202;-69
2022/10/06 05:23:21;;;;;;;13.23;3.20;;;;;;;;;;5055130;28;20186;-69
2022/10/06 05:25:51;;;;;;;15.93;3.53;;;;;;;;;;5055176;28;20548;-69
2022/10/06 05:28:17;;;;;;;13.47;3.10;;;;;;;;;;5054760;28;20519;-69
2022/10/06 05:30:43;;;;;;;13.80;3.13;;;;;;;;;;5055266;28;20175;-69
2022/10/06 05:33:11;;;;;;;17.77;2.83;;;;;;;;;;5055173;28;20182;-69
2022/10/06 05:35:36;;;;;;;13.97;3.00;;;;;;;;;;5054907;28;20232;-69
2022/10/06 05:38:02;;;;;;;16.87;3.03;;;;;;;;;;5037037;28;20554;-69
2022/10/06 05:40:28;;;;;;;12.60;2.90;;;;;;;;;;5054879;28;20665;-67
2022/10/06 05:42:55;;;;;;;11.03;3.67;;;;;;;;;;5036955;28;20241;-69
2022/10/06 05:45:21;;;;;;;15.83;3.30;;;;;;;;;;5055059;28;20179;-69
2022/10/06 05:47:46;;;;;;;15.80;3.17;;;;;;;;;;5054863;28;20183;-70
2022/10/06 05:50:12;;;;;;;8.10;2.70;;;;;;;;;;5036961;28;20224;-68
2022/10/06 05:52:39;;;;;;;13.37;3.10;;;;;;;;;;5054537;28;20225;-68
2022/10/06 05:55:05;;;;;;;17.47;2.90;;;;;;;;;;5054985;28;20257;-69
2022/10/06 05:57:31;;;;;;;14.03;3.53;;;;;;;;;;5054742;28;20663;-69
2022/10/06 05:59:57;;;;;;;11.93;3.00;;;;;;;;;;5036661;28;20186;-69
2022/10/06 06:02:23;;;;;;;16.27;3.53;;;;;;;;;;5036614;28;20198;-68
2022/10/06 06:04:49;;;;;;;14.27;3.30;;;;;;;;;;5036561;28;20186;-68
2022/10/06 06:07:15;;;;;;;13.47;3.03;;;;;;;;;;5054466;28;20217;-69
2022/10/06 06:09:41;;;;;;;10.50;2.80;;;;;;;;;;5054836;28;20193;-68
2022/10/06 06:12:07;;;;;;;15.33;3.60;;;;;;;;;;5054397;28;20202;-69
2022/10/06 06:17:17;;;;;;;13.60;3.80;;;;;;;;;;5054347;28;20202;-68
2022/10/06 06:19:43;;;;;;;13.90;3.13;;;;;;;;;;5054218;28;20171;-71
2022/10/06 06:22:09;;;;;;;11.97;3.77;;;;;;;;;;5036167;28;20194;-68
2022/10/06 06:24:35;;;;;;;11.13;2.90;;;;;;;;;;5036176;28;20178;-68
2022/10/06 06:27:01;;;;;;;13.43;3.23;;;;;;;;;;5036295;28;20191;-68
2022/10/06 06:29:27;;;;;;;16.77;3.97;;;;;;;;;;5054441;28;20183;-68
2022/10/06 06:31:53;;;;;;;13.77;3.77;;;;;;;;;;5054080;28;20229;-67
2022/10/06 06:34:19;;;;;;;17.63;3.67;;;;;;;;;;5036167;28;20205;-67
2022/10/06 06:36:50;;;;;;;20.83;4.80;;;;;;;;;;5035963;28;20202;-67
2022/10/06 06:39:18;;;;;;;18.00;3.27;;;;;;;;;;5054696;28;20170;-67
2022/10/06 06:41:45;;;;;;;17.00;3.73;;;;;;;;;;5053907;28;20232;-68
2022/10/06 06:44:12;;;;;;;14.00;3.47;;;;;;;;;;5054754;28;20324;-68
2022/10/06 06:46:39;;;;;;;14.00;3.77;;;;;;;;;;5055059;28;20257;-68
2022/10/06 06:49:05;;;;;;;20.10;3.67;;;;;;;;;;5037889;28;20268;-69
2022/10/06 06:51:33;;;;;;;15.80;3.70;;;;;;;;;;5037396;28;20218;-68
2022/10/06 06:54:01;;;;;;;19.07;3.17;;;;;;;;;;5054772;28;20616;-68
2022/10/06 06:56:27;;;;;;;16.10;3.50;;;;;;;;;;5036673;28;20216;-65
2022/10/06 06:58:53;;;;;;;18.13;4.20;;;;;;;;;;5036588;28;20182;-66
2022/10/06 07:01:20;;;;;;;19.27;4.10;;;;;;;;;;5053703;28;20200;-67
2022/10/06 07:03:50;;;;;;;18.73;3.17;;;;;;;;;;5036140;28;20178;-67
2022/10/06 07:06:17;;;;;;;18.00;3.73;;;;;;;;;;5053978;28;20178;-68
2022/10/06 07:08:44;;;;;;;16.17;3.93;;;;;;;;;;5054916;28;20213;-68
2022/10/06 07:11:14;;;;;;;19.40;3.77;;;;;;;;;;5054259;28;20209;-70
2022/10/06 07:13:41;;;;;;;12.87;3.23;;;;;;;;;;5053600;28;20585;-68
2022/10/06 07:27:07;;;;;;;14.97;3.27;;;;;;;;;;5053177;28;20169;-67
2022/10/06 07:29:33;;;;;;;18.47;3.70;;;;;;;;;;5035141;28;20182;-66
2022/10/06 07:31:59;;;;;;;19.20;3.30;;;;;;;;;;5053082;28;20276;-67
2022/10/06 07:34:25;;;;;;;14.13;3.73;;;;;;;;;;5053408;28;20712;-66
2022/10/06 07:36:53;;;;;;;14.70;4.23;;;;;;;;;;5053537;28;20218;-66
2022/10/06 07:39:19;;;;;;;18.47;3.83;;;;;;;;;;5053780;28;20178;-67
2022/10/06 07:41:45;;;;;;;12.07;3.00;;;;;;;;;;5053351;28;20191;-67
2022/10/06 07:44:11;;;;;;;13.43;3.40;;;;;;;;;;5053354;28;20311;-67
2022/10/06 07:46:37;;;;;;;9.47;3.23;;;;;;;;;;5053209;28;20243;-67
2022/10/06 07:49:03;;;;;;;17.30;3.60;;;;;;;;;;5035077;28;20189;-66
2022/10/06 07:51:29;;;;;;;15.20;4.00;;;;;;;;;;5053249;28;20605;-67
2022/10/06 07:53:55;;;;;;;16.80;3.93;;;;;;;;;;5057017;28;20178;-67
2022/10/06 07:56:21;;;;;;;11.93;3.73;;;;;;;;;;5056768;28;20236;-67
2022/10/06 07:58:48;;;;;;;16.33;4.03;;;;;;;;;;5056833;28;20178;-67
2022/10/06 08:01:15;;;;;;;16.33;4.27;;;;;;;;;;5038994;28;20721;-68
2022/10/06 08:03:41;;;;;;;20.83;3.97;;;;;;;;;;5056842;28;20178;-67
2022/10/06 08:06:13;;;;;;;16.40;3.73;;;;;;;;;;5038868;28;20213;-67
2022/10/06 08:08:39;;;;;;;18.60;4.23;;;;;;;;;;5056818;28;20162;-67
2022/10/06 08:11:06;;;;;;;13.53;3.43;;;;;;;;;;5038761;28;20704;-67
2022/10/06 08:13:34;;;;;;;23.10;4.77;;;;;;;;;;5038676;28;20220;-68
2022/10/06 08:16:04;;;;;;;20.37;3.70;;;;;;;;;;5038804;28;20530;-68
2022/10/06 08:18:30;;;;;;;22.93;4.00;;;;;;;;;;5056439;28;20198;-68
2022/10/06 08:20:57;;;;;;;19.23;3.70;;;;;;;;;;5038789;28;20570;-68
2022/10/06 08:23:23;;;;;;;20.37;3.67;;;;;;;;;;5056434;28;20201;-67
2022/10/06 08:25:54;;;;;;;19.87;3.97;;;;;;;;;;5038527;28;20179;-68
2022/10/06 08:28:21;;;;;;;14.97;3.80;;;;;;;;;;5038385;28;20657;-68
2022/10/06 08:30:50;;;;;;;12.17;3.27;;;;;;;;;;5056300;28;20284;-68
2022/10/06 08:33:16;;;;;;;18.97;3.47;;;;;;;;;;5038483;28;20189;-68
2022/10/06 08:35:42;;;;;;;12.60;3.53;;;;;;;;;;5056288;28;20175;-68
2022/10/06 08:38:07;;;;;;;16.40;3.70;;;;;;;;;;5055858;28;20182;-67
2022/10/06 08:40:34;;;;;;;14.30;3.27;;;;;;;;;;5056119;28;20253;-67
2022/10/06 08:43:01;;;;;;;18.17;3.70;;;;;;;;;;5055937;28;20170;-68
2022/10/06 08:45:33;;;;;;;16.00;3.80;;;;;;;;;;5056090;28;20221;-68
2022/10/06 08:48:09;;;;;;;11.67;3.13;;;;;;;;;;5037795;28;20668;-68
2022/10/06 08:50:40;;;;;;;14.60;3.30;;;;;;;;;;5037584;28;20178;-67
2022/10/06 08:53:13;;;;;;;15.07;4.10;;;;;;;;;;5055620;28;20174;-67
2022/10/06 08:55:46;;;;;;;13.77;3.53;;;;;;;;;;5055867;28;20201;-69
2022/10/06 08:58:30;;;;;;;11.87;3.03;;;;;;;;;;5055625;28;20627;-68
2022/10/06 09:01:20;;;;;;;12.07;2.93;;;;;;;;;;5055540;28;20190;-68
2022/10/06 09:03:47;;;;;;;15.37;3.33;;;;;;;;;;4983310;28;20187;-68
2022/10/06 09:06:22;;;;;;;16.57;3.40;;;;;;;;;;5055646;28;20171;-68
2022/10/06 09:08:54;;;;;;;22.67;4.00;;;;;;;;;;5055466;28;20157;-68
2022/10/06 09:11:25;;;;;;;13.53;3.00;;;;;;;;;;5055567;28;20199;-68
2022/10/06 09:13:53;;;;;;;12.90;3.23;;;;;;;;;;5055765;28;20619;-67
2022/10/06 09:16:31;;;;;;;8.97;2.60;;;;;;;;;;5055348;28;20285;-69
2022/10/06 09:19:08;;;;;;;14.43;3.30;;;;;;;;;;5055401;28;20174;-68
2022/10/06 09:21:43;;;;;;;12.30;4.03;;;;;;;;;;5055490;28;20189;-68
2022/10/06 09:24:14;;;;;;;19.30;3.33;;;;;;;;;;5037575;28;20604;-68
2022/10/06 09:26:42;;;;;;;9.63;3.07;;;;;;;;;;5055387;28;20194;-68
2022/10/06 09:29:08;;;;;;;18.67;3.37;;;;;;;;;;5055561;28;20222;-67
2022/10/06 09:31:38;;;;;;;14.37;3.87;;;;;;;;;;5055480;28;20676;-67
2022/10/06 09:34:34;;;;;;;17.90;3.37;;;;;;;;;;5055125;28;20182;-68
2022/10/06 09:37:06;;;;;;;9.10;2.73;;;;;;;;;;5029839;28;20301;-68
2022/10/06 09:39:36;;;;;;;14.00;3.20;;;;;;;;;;5055356;28;20690;-67
2022/10/06 09:42:11;;;;;;;13.03;3.40;;;;;;;;;;5037112;28;20202;-68
2022/10/06 09:44:43;;;;;;;14.07;3.43;;;;;;;;;;5037176;28;20548;-68
2022/10/06 09:47:29;;;;;;;16.00;3.83;;;;;;;;;;5054900;28;20201;-68
2022/10/06 09:50:02;;;;;;;15.97;3.03;;;;;;;;;;5055226;28;20186;-68
2022/10/06 09:52:28;;;;;;;9.10;2.50;;;;;;;;;;5036809;28;20218;-68
2022/10/06 09:55:10;;;;;;;13.63;2.97;;;;;;;;;;5055077;28;20265;-68
2022/10/06 09:57:36;;;;;;;14.40;3.50;;;;;;;;;;5036672;28;20209;-69
2022/10/06 10:00:03;;;;;;;12.47;2.87;;;;;;;;;;5054681;28;20174;-68
2022/10/06 10:02:38;;;;;;;12.63;2.90;;;;;;;;;;5036645;28;20198;-68
2022/10/06 10:05:08;;;;;;;11.37;3.73;;;;;;;;;;5054793;28;20154;-68
2022/10/06 10:07:34;;;;;;;9.00;2.80;;;;;;;;;;5054379;28;20182;-68
2022/10/06 10:10:16;;;;;;;13.90;3.10;;;;;;;;;;5054528;28;20602;-68
2022/10/06 10:12:49;;;;;;;10.00;2.80;;;;;;;;;;5036718;28;20206;-68
2022/10/06 10:15:18;;;;;;;12.20;2.83;;;;;;;;;;5053266;28;20182;-68
2022/10/06 10:17:47;;;;;;;12.17;2.90;;;;;;;;;;5054333;28;20206;-68
2022/10/06 10:20:26;;;;;;;17.57;3.40;;;;;;;;;;5054457;28;20175;-68
2022/10/06 10:22:53;;;;;;;15.10;3.17;;;;;;;;;;5054372;28;20186;-68
2022/10/06 10:25:19;;;;;;;15.90;2.93;;;;;;;;;;5054062;28;20175;-68
2022/10/06 10:27:53;;;;;;;9.07;2.87;;;;;;;;;;5054191;28;20232;-70
2022/10/06 10:30:19;;;;;;;12.63;2.93;;;;;;;;;;5036212;28;20214;-68
2022/10/06 10:32:51;;;;;;;11.50;2.67;;;;;;;;;;5054357;28;20303;-68
2022/10/06 10:35:25;;;;;;;12.03;3.27;;;;;;;;;;5053884;28;20266;-68
2022/10/06 10:38:03;;;;;;;10.10;3.17;;;;;;;;;;5053684;28;20214;-67
2022/10/06 10:40:34;;;;;;;11.40;2.30;;;;;;;;;;5054255;28;20208;-68
2022/10/06 10:43:05;;;;;;;11.10;3.17;;;;;;;;;;5053928;28;20255;-68
2022/10/06 10:45:34;;;;;;;7.67;2.60;;;;;;;;;;5054025;28;20171;-68
2022/10/06 10:48:01;;;;;;;8.67;3.07;;;;;;;;;;5035839;28;20182;-68
2022/10/06 10:50:35;;;;;;;11.00;2.73;;;;;;;;;;5035714;28;20531;-68
2022/10/06 10:53:08;;;;;;;7.73;2.53;;;;;;;;;;5054889;28;20205;-67
2022/10/06 10:55:36;;;;;;;9.47;3.07;;;;;;;;;;5053695;28;20167;-68
2022/10/06 10:58:13;;;;;;;10.00;2.93;;;;;;;;;;5035410;28;20206;-68
2022/10/06 11:00:41;;;;;;;10.07;2.50;;;;;;;;;;5053950;28;20615;-68
2022/10/06 11:03:10;;;;;;;10.30;3.63;;;;;;;;;;5053416;28;20308;-68
2022/10/06 11:05:48;;;;;;;11.63;2.90;;;;;;;;;;5053436;28;20565;-68
2022/10/06 11:08:21;;;;;;;11.27;2.83;;;;;;;;;;5053894;28;20182;-67
2022/10/06 11:10:50;;;;;;;14.80;2.97;;;;;;;;;;5053625;28;20678;-67
2022/10/06 11:13:19;;;;;;;8.63;2.70;;;;;;;;;;5053147;28;20171;-68
2022/10/06 11:16:04;;;;;;;12.70;2.70;;;;;;;;;;5035382;28;20186;-68
2022/10/06 11:18:50;;;;;;;7.83;2.60;;;;;;;;;;5053296;28;20190;-68
2022/10/06 11:21:19;;;;;;;8.53;2.40;;;;;;;;;;4993974;28;20614;-68
2022/10/06 11:24:12;;;;;;;6.43;2.27;;;;;;;;;;5035408;28;20185;-68
2022/10/06 11:26:41;;;;;;;9.80;2.57;;;;;;;;;;5052872;28;20181;-68
2022/10/06 11:29:27;;;;;;;9.17;2.93;;;;;;;;;;5035308;28;20210;-68
2022/10/06 11:31:53;;;;;;;7.53;2.80;;;;;;;;;;5053342;28;20201;-68
2022/10/06 11:34:19;;;;;;;10.90;2.80;;;;;;;;;;5053577;28;20162;-70
2022/10/06 11:36:48;;;;;;;8.47;2.30;;;;;;;;;;5053137;28;20277;-67
2022/10/06 11:39:21;;;;;;;14.03;2.70;;;;;;;;;;5053254;28;20171;-69
2022/10/06 11:42:01;;;;;;;10.67;2.80;;;;;;;;;;5035215;28;20198;-69
2022/10/06 11:44:34;;;;;;;13.13;2.73;;;;;;;;;;5053243;28;20174;-69
2022/10/06 11:47:05;;;;;;;7.50;2.77;;;;;;;;;;5052980;28;20236;-69
2022/10/06 11:49:31;;;;;;;8.90;2.57;;;;;;;;;;5053212;28;20558;-69
2022/10/06 11:52:06;;;;;;;8.70;2.73;;;;;;;;;;5053360;28;20594;-68
2022/10/06 11:54:44;;;;;;;8.43;2.70;;;;;;;;;;5053736;28;20181;-68
2022/10/06 11:57:40;;;;;;;12.60;2.90;;;;;;;;;;5035112;28;20206;-69
2022/10/06 12:00:15;;;;;;;8.20;2.30;;;;;;;;;;5028275;28;20202;-68
2022/10/06 12:02:42;;;;;;;11.07;2.63;;;;;;;;;;5053623;28;20225;-68
2022/10/06 12:05:14;;;;;;;6.33;2.00;;;;;;;;;;5035715;28;20182;-69
2022/10/06 12:07:52;;;;;;;10.00;2.80;;;;;;;;;;5053139;28;20174;-69
2022/10/06 12:10:27;;;;;;;7.17;2.23;;;;;;;;;;5054012;28;20182;-70
2022/10/06 12:13:10;;;;;;;7.10;2.20;;;;;;;;;;5035229;28;20198;-70
2022/10/06 12:15:41;;;;;;;8.67;1.97;;;;;;;;;;5053539;28;20178;-70
2022/10/06 12:18:13;;;;;;;4.77;1.93;;;;;;;;;;5053556;28;20194;-70
2022/10/06 12:20:57;;;;;;;5.67;2.13;;;;;;;;;;5054135;28;20190;-70
2022/10/06 12:24:00;;;;;;;5.53;1.77;;;;;;;;;;5035193;28;20239;-70
2022/10/06 12:26:26;;;;;;;8.07;2.00;;;;;;;;;;4918829;29;20186;-70
2022/10/06 12:29:12;;;;;;;6.33;1.90;;;;;;;;;;5030566;28;20677;-70
2022/10/06 12:31:38;;;;;;;9.37;2.47;;;;;;;;;;4994151;28;20733;-71
2022/10/06 12:34:24;;;;;;;11.27;2.50;;;;;;;;;;5053308;28;20178;-70
2022/10/06 12:37:10;;;;;;;10.00;3.10;;;;;;;;;;5053015;28;20206;-71
2022/10/06 12:39:36;;;;;;;8.73;1.93;;;;;;;;;;5037043;28;20591;-70
2022/10/06 12:42:06;;;;;;;8.23;2.63;;;;;;;;;;5056215;28;20195;-71
2022/10/06 12:44:39;;;;;;;7.07;2.47;;;;;;;;;;5038080;28;20638;-67
2022/10/06 12:47:17;;;;;;;10.53;2.30;;;;;;;;;;5056280;28;20179;-68
2022/10/06 12:50:04;;;;;;;13.40;2.47;;;;;;;;;;5056551;28;20166;-70
2022/10/06 12:52:43;;;;;;;5.33;2.33;;;;;;;;;;5038643;28;20456;-68
2022/10/06 12:55:10;;;;;;;10.17;2.73;;;;;;;;;;5057996;22;20718;-67
2022/10/06 12:57:50;;;;;;;8.37;2.43;;;;;;;;;;5035584;28;20258;-69
2022/10/06 13:00:22;;;;;;;8.37;2.07;;;;;;;;;;5035638;28;20266;-70
2022/10/06 13:02:48;;;;;;;6.07;2.23;;;;;;;;;;5017834;28;20175;-69
2022/10/06 13:05:15;;;;;;;4.80;1.77;;;;;;;;;;5017826;28;20199;-69
2022/10/06 13:07:57;;;;;;;6.80;2.00;;;;;;;;;;5035879;28;20179;-70
2022/10/06 13:10:23;;;;;;;7.67;2.67;;;;;;;;;;5017772;28;20663;-70
2022/10/06 13:12:49;;;;;;;7.37;2.43;;;;;;;;;;5036033;28;20624;-70
2022/10/06 13:15:18;;;;;;;9.20;2.20;;;;;;;;;;5035965;28;20206;-67
2022/10/06 13:17:47;;;;;;;11.53;2.60;;;;;;;;;;5017698;28;20210;-69
2022/10/06 13:20:39;;;;;;;8.27;2.50;;;;;;;;;;5035303;28;20183;-67
2022/10/06 13:23:08;;;;;;;7.13;2.80;;;;;;;;;;5013934;28;20219;-67
2022/10/06 13:25:40;;;;;;;8.07;2.07;;;;;;;;;;5017421;28;20234;-69
2022/10/06 13:28:17;;;;;;;6.30;2.60;;;;;;;;;;5017504;28;20175;-69
2022/10/06 13:30:48;;;;;;;10.00;2.40;;;;;;;;;;5035503;28;20204;-69
2022/10/06 13:33:14;;;;;;;8.37;2.73;;;;;;;;;;5035437;28;20167;-67
2022/10/06 13:35:40;;;;;;;5.40;2.20;;;;;;;;;;5035055;28;20194;-67
2022/10/06 13:38:06;;;;;;;7.53;2.03;;;;;;;;;;5017171;28;20550;-67
2022/10/06 13:40:32;;;;;;;9.73;2.30;;;;;;;;;;5035285;28;20185;-67
2022/10/06 13:43:02;;;;;;;5.43;2.47;;;;;;;;;;5035369;28;20182;-67
2022/10/06 13:45:28;;;;;;;6.80;2.30;;;;;;;;;;5034813;28;20199;-68
2022/10/06 13:48:11;;;;;;;10.03;2.13;;;;;;;;;;5034801;28;20190;-68
2022/10/06 13:50:43;;;;;;;8.87;2.20;;;;;;;;;;5034823;28;20170;-68
2022/10/06 13:53:22;;;;;;;6.57;2.13;;;;;;;;;;5016884;28;20186;-67
2022/10/06 13:55:49;;;;;;;5.33;2.17;;;;;;;;;;5034709;28;20245;-67
2022/10/06 13:58:22;;;;;;;7.53;2.03;;;;;;;;;;5016773;28;20655;-67
2022/10/06 14:00:50;;;;;;;8.63;2.30;;;;;;;;;;5016781;28;20179;-67
2022/10/06 14:03:23;;;;;;;6.07;2.13;;;;;;;;;;5034445;28;20176;-67
2022/10/06 14:05:50;;;;;;;8.00;2.30;;;;;;;;;;5016803;28;20175;-67
2022/10/06 14:08:26;;;;;;;10.63;2.30;;;;;;;;;;5016614;28;20214;-67
2022/10/06 14:10:57;;;;;;;5.97;2.03;;;;;;;;;;5016623;28;20197;-67
2022/10/06 14:13:29;;;;;;;7.47;2.27;;;;;;;;;;5016439;28;20187;-67
2022/10/06 14:16:18;;;;;;;7.33;2.20;;;;;;;;;;5034355;28;20229;-67
2022/10/06 14:18:45;;;;;;;5.20;2.03;;;;;;;;;;5006786;28;20286;-67
2022/10/06 14:21:26;;;;;;;7.53;2.10;;;;;;;;;;5034269;28;20233;-67
2022/10/06 14:23:53;;;;;;;6.97;2.07;;;;;;;;;;5035752;28;20198;-67
2022/10/06 14:26:22;;;;;;;3.60;2.17;;;;;;;;;;5036315;28;20652;-68
2022/10/06 14:28:51;;;;;;;5.10;2.30;;;;;;;;;;5018255;28;20232;-67
2022/10/06 14:31:17;;;;;;;4.90;2.00;;;;;;;;;;5035307;28;20545;-67
2022/10/06 14:33:45;;;;;;;7.80;2.07;;;;;;;;;;5034479;28;20210;-67
2022/10/06 14:36:14;;;;;;;5.83;2.33;;;;;;;;;;5016147;28;20194;-68
2022/10/06 14:38:40;;;;;;;4.33;2.37;;;;;;;;;;5033883;28;20651;-67
2022/10/06 14:41:06;;;;;;;4.43;2.03;;;;;;;;;;5034026;28;20203;-67
2022/10/06 14:43:32;;;;;;;5.70;2.27;;;;;;;;;;5033628;28;20547;-67
2022/10/06 14:45:59;;;;;;;4.60;2.20;;;;;;;;;;5033694;28;20569;-67
2022/10/06 14:48:27;;;;;;;5.67;1.93;;;;;;;;;;5033578;28;20183;-67
2022/10/06 14:50:53;;;;;;;6.33;1.97;;;;;;;;;;5033490;28;20179;-67
2022/10/06 14:53:19;;;;;;;6.43;2.60;;;;;;;;;;5033448;28;20185;-66
2022/10/06 14:55:45;;;;;;;8.13;2.30;;;;;;;;;;5033373;28;20317;-67
2022/10/06 14:58:11;;;;;;;7.07;1.90;;;;;;;;;;5033298;28;20266;-67
2022/10/06 15:00:39;;;;;;;8.53;2.27;;;;;;;;;;5015899;28;20189;-67
2022/10/06 15:03:05;;;;;;;6.83;2.47;;;;;;;;;;5033148;28;20178;-67